Time;durP1;ratioP1;P1;durP2;ratioP2;P2;SDS_P1;SDS_P2;PMS_P1;PMS_P2;Temp;Humidity;BMP_temperature;BMP_pressure;BME280_temperature;BME280_humidity;BME280_pressure;Samples;Min_cycle;Max_cycle;Signal;HPM_P1;HPM_P2
2023/12/28 00:01:54;;;;;;;39.67;18.08;;;;;;;;;;5065699;28;20032;-59
2023/12/28 00:04:21;;;;;;;38.55;14.15;;;;;;;;;;5065633;28;20016;-59
2023/12/28 00:06:47;;;;;;;30.00;13.60;;;;;;;;;;5065484;28;20025;-62
2023/12/28 00:09:14;;;;;;;30.55;12.27;;;;;;;;;;5067532;28;20024;-61
2023/12/28 00:11:40;;;;;;;31.75;11.30;;;;;;;;;;5065139;28;20024;-61
2023/12/28 00:14:07;;;;;;;23.88;10.77;;;;;;;;;;5066619;28;20020;-62
2023/12/28 00:16:36;;;;;;;27.73;11.65;;;;;;;;;;5067647;28;20032;-62
2023/12/28 00:19:03;;;;;;;31.08;12.90;;;;;;;;;;5066661;28;20074;-62
2023/12/28 00:21:30;;;;;;;26.02;11.73;;;;;;;;;;5066866;28;20033;-61
2023/12/28 00:23:57;;;;;;;31.90;12.07;;;;;;;;;;5067107;28;20059;-62
2023/12/28 00:26:24;;;;;;;47.28;34.65;;;;;;;;;;5067396;28;20031;-62
2023/12/28 00:28:51;;;;;;;43.40;26.17;;;;;;;;;;5066796;28;20025;-61
2023/12/28 00:31:17;;;;;;;36.80;19.58;;;;;;;;;;5067324;28;20044;-61
2023/12/28 00:33:44;;;;;;;32.17;15.65;;;;;;;;;;5066996;28;20031;-61
2023/12/28 00:36:10;;;;;;;28.10;17.10;;;;;;;;;;5067227;28;20025;-61
2023/12/28 00:38:37;;;;;;;25.95;14.35;;;;;;;;;;5067125;28;20146;-62
2023/12/28 00:41:04;;;;;;;26.55;12.70;;;;;;;;;;5067346;28;20040;-61
2023/12/28 00:43:31;;;;;;;25.85;11.73;;;;;;;;;;5066853;28;20025;-61
2023/12/28 00:45:57;;;;;;;25.10;11.05;;;;;;;;;;5067000;28;20024;-61
2023/12/28 00:48:24;;;;;;;26.90;11.15;;;;;;;;;;5066893;28;20025;-61
2023/12/28 00:50:51;;;;;;;27.20;10.88;;;;;;;;;;5066166;28;20045;-61
2023/12/28 00:53:17;;;;;;;30.92;10.48;;;;;;;;;;5066704;28;20020;-61
2023/12/28 00:55:44;;;;;;;29.27;10.48;;;;;;;;;;5066599;28;20024;-61
2023/12/28 00:58:10;;;;;;;26.42;9.43;;;;;;;;;;5066110;28;20029;-61
2023/12/28 01:00:37;;;;;;;24.98;8.75;;;;;;;;;;5066741;28;20021;-61
2023/12/28 01:03:04;;;;;;;24.67;9.75;;;;;;;;;;5066266;28;20087;-61
2023/12/28 01:05:30;;;;;;;26.42;9.82;;;;;;;;;;5066557;28;20028;-60
2023/12/28 01:07:57;;;;;;;26.73;10.60;;;;;;;;;;5065790;28;20257;-61
2023/12/28 01:10:23;;;;;;;22.00;9.45;;;;;;;;;;5066296;28;20081;-61
2023/12/28 01:12:50;;;;;;;24.33;9.88;;;;;;;;;;5065883;28;20028;-60
2023/12/28 01:15:17;;;;;;;25.55;8.82;;;;;;;;;;5066310;28;20046;-61
2023/12/28 01:17:44;;;;;;;22.77;8.90;;;;;;;;;;5066291;28;20028;-61
2023/12/28 01:20:11;;;;;;;24.05;9.18;;;;;;;;;;5066173;28;20024;-60
2023/12/28 01:22:37;;;;;;;29.73;9.25;;;;;;;;;;5066097;28;20039;-61
2023/12/28 01:25:05;;;;;;;24.45;9.55;;;;;;;;;;5066013;28;20080;-61
2023/12/28 01:27:31;;;;;;;22.83;8.45;;;;;;;;;;5065957;28;20291;-60
2023/12/28 01:29:58;;;;;;;21.15;8.20;;;;;;;;;;5066101;28;20033;-61
2023/12/28 01:32:24;;;;;;;18.52;7.97;;;;;;;;;;5065741;28;20088;-61
2023/12/28 01:34:51;;;;;;;22.40;8.40;;;;;;;;;;5065988;28;20036;-62
2023/12/28 01:37:17;;;;;;;23.00;8.65;;;;;;;;;;5065761;28;20025;-61
2023/12/28 01:39:44;;;;;;;20.23;7.90;;;;;;;;;;5065959;28;20092;-61
2023/12/28 01:42:11;;;;;;;24.02;8.98;;;;;;;;;;5065484;28;20265;-61
2023/12/28 01:44:37;;;;;;;20.98;7.95;;;;;;;;;;5065309;28;20031;-61
2023/12/28 01:47:04;;;;;;;25.40;9.05;;;;;;;;;;5065587;28;20020;-61
2023/12/28 01:49:31;;;;;;;21.30;7.93;;;;;;;;;;5065639;28;20017;-62
2023/12/28 01:51:57;;;;;;;22.15;8.60;;;;;;;;;;5064943;28;20045;-62
2023/12/28 01:54:24;;;;;;;22.95;8.63;;;;;;;;;;5065555;28;20084;-62
2023/12/28 01:56:51;;;;;;;27.38;9.07;;;;;;;;;;5065534;28;20028;-62
2023/12/28 01:59:18;;;;;;;26.30;8.30;;;;;;;;;;5065022;28;20025;-62
2023/12/28 02:01:46;;;;;;;20.67;7.95;;;;;;;;;;5064885;28;20070;-63
2023/12/28 02:04:12;;;;;;;26.02;9.20;;;;;;;;;;5064923;28;20028;-61
2023/12/28 02:06:39;;;;;;;22.90;7.75;;;;;;;;;;5064881;28;20331;-61
2023/12/28 02:09:06;;;;;;;20.98;7.97;;;;;;;;;;5065205;28;20017;-62
2023/12/28 02:11:32;;;;;;;21.08;8.32;;;;;;;;;;5065348;28;20025;-62
2023/12/28 02:13:59;;;;;;;22.83;8.15;;;;;;;;;;5065065;28;20036;-62
2023/12/28 02:16:39;;;;;;;20.48;8.27;;;;;;;;;;5065420;28;20029;-63
2023/12/28 02:19:13;;;;;;;21.05;7.88;;;;;;;;;;5064639;28;20017;-60
2023/12/28 02:21:40;;;;;;;22.02;8.52;;;;;;;;;;5064870;28;20029;-62
2023/12/28 02:24:06;;;;;;;21.88;8.45;;;;;;;;;;5065168;28;20261;-62
2023/12/28 02:26:33;;;;;;;21.50;8.15;;;;;;;;;;5065388;28;20076;-61
2023/12/28 02:28:59;;;;;;;22.80;8.48;;;;;;;;;;5064822;28;20029;-62
2023/12/28 02:31:33;;;;;;;22.60;8.07;;;;;;;;;;5065243;28;20312;-61
2023/12/28 02:34:05;;;;;;;22.20;8.43;;;;;;;;;;5064836;28;20087;-62
2023/12/28 02:36:31;;;;;;;;;;;;;;;;;;5065808;28;20032;-62
2023/12/28 02:38:59;;;;;;;21.50;8.10;;;;;;;;;;5064361;28;20189;-60
2023/12/28 02:41:26;;;;;;;24.10;8.27;;;;;;;;;;5064774;28;20025;-60
2023/12/28 02:43:53;;;;;;;22.35;8.35;;;;;;;;;;5064834;28;20088;-61
2023/12/28 02:46:19;;;;;;;23.55;8.18;;;;;;;;;;5063991;28;20262;-62
2023/12/28 02:48:46;;;;;;;22.05;8.57;;;;;;;;;;5061652;28;20040;-60
2023/12/28 02:51:13;;;;;;;22.63;8.57;;;;;;;;;;5062978;28;20052;-62
2023/12/28 02:53:39;;;;;;;24.25;8.52;;;;;;;;;;5063738;28;20020;-60
2023/12/28 02:56:06;;;;;;;24.05;8.77;;;;;;;;;;5063929;28;20045;-57
2023/12/28 02:58:33;;;;;;;21.30;8.10;;;;;;;;;;5063344;28;20084;-59
2023/12/28 03:00:59;;;;;;;24.20;7.88;;;;;;;;;;5063979;28;20025;-55
2023/12/28 03:03:26;;;;;;;25.90;8.45;;;;;;;;;;5062940;28;20032;-57
2023/12/28 03:05:53;;;;;;;18.95;7.85;;;;;;;;;;5068771;28;20024;-59
2023/12/28 03:08:19;;;;;;;22.42;7.70;;;;;;;;;;5076859;28;20044;-60
2023/12/28 03:10:46;;;;;;;21.23;7.90;;;;;;;;;;5072491;28;20031;-62
2023/12/28 03:13:12;;;;;;;26.17;9.23;;;;;;;;;;5061850;28;20139;-56
2023/12/28 03:15:39;;;;;;;21.33;8.63;;;;;;;;;;5067916;28;20020;-58
2023/12/28 03:18:05;;;;;;;22.27;8.38;;;;;;;;;;5069975;28;20035;-57
2023/12/28 03:20:32;;;;;;;22.50;8.85;;;;;;;;;;5076455;28;20025;-62
2023/12/28 03:22:59;;;;;;;28.63;8.75;;;;;;;;;;5066760;28;20258;-59
2023/12/28 03:25:25;;;;;;;25.23;8.73;;;;;;;;;;5067500;28;20197;-60
2023/12/28 03:27:52;;;;;;;25.98;9.10;;;;;;;;;;5067370;28;20021;-58
2023/12/28 03:30:18;;;;;;;23.95;8.73;;;;;;;;;;5067332;28;20017;-59
2023/12/28 03:32:45;;;;;;;21.55;7.97;;;;;;;;;;5067197;28;20344;-60
2023/12/28 03:35:12;;;;;;;21.13;7.72;;;;;;;;;;5067146;28;20313;-62
2023/12/28 03:37:38;;;;;;;22.13;8.43;;;;;;;;;;5067080;28;20032;-60
2023/12/28 03:40:06;;;;;;;26.17;8.93;;;;;;;;;;5071510;28;20032;-61
2023/12/28 03:42:32;;;;;;;22.95;8.93;;;;;;;;;;5071917;28;20232;-61
2023/12/28 03:44:59;;;;;;;24.15;9.00;;;;;;;;;;5067430;28;20025;-62
2023/12/28 03:47:25;;;;;;;20.70;8.02;;;;;;;;;;5067046;28;20024;-60
2023/12/28 03:49:52;;;;;;;26.42;8.35;;;;;;;;;;5065852;28;20028;-62
2023/12/28 03:52:19;;;;;;;19.98;8.05;;;;;;;;;;5067083;28;20020;-58
2023/12/28 03:54:45;;;;;;;20.20;7.88;;;;;;;;;;5067306;28;20029;-61
2023/12/28 03:57:12;;;;;;;24.00;8.45;;;;;;;;;;5066891;28;20044;-60
2023/12/28 03:59:38;;;;;;;23.17;8.25;;;;;;;;;;5067118;28;20071;-59
2023/12/28 04:02:05;;;;;;;24.17;7.72;;;;;;;;;;5066768;28;20020;-61
2023/12/28 04:04:31;;;;;;;19.75;8.20;;;;;;;;;;5066705;28;20035;-61
2023/12/28 04:06:58;;;;;;;23.98;8.98;;;;;;;;;;5066786;28;20028;-61
2023/12/28 04:09:24;;;;;;;19.98;7.68;;;;;;;;;;5066670;28;20025;-60
2023/12/28 04:11:51;;;;;;;21.65;7.63;;;;;;;;;;5066514;28;20016;-58
2023/12/28 04:14:17;;;;;;;24.98;8.20;;;;;;;;;;5065489;28;20021;-62
2023/12/28 04:16:45;;;;;;;23.10;8.02;;;;;;;;;;5074697;28;20082;-59
2023/12/28 04:19:12;;;;;;;22.10;7.78;;;;;;;;;;5069241;28;20209;-58
2023/12/28 04:21:38;;;;;;;23.10;8.02;;;;;;;;;;5066547;28;20062;-60
2023/12/28 04:24:05;;;;;;;19.80;7.72;;;;;;;;;;5066521;28;20336;-61
2023/12/28 04:26:33;;;;;;;21.63;7.82;;;;;;;;;;5065849;28;20044;-60
2023/12/28 04:29:00;;;;;;;18.10;7.70;;;;;;;;;;5066593;28;20025;-64
2023/12/28 04:31:27;;;;;;;22.52;8.10;;;;;;;;;;5066709;28;20025;-60
2023/12/28 04:33:53;;;;;;;23.60;7.57;;;;;;;;;;5066126;28;20020;-61
2023/12/28 04:36:20;;;;;;;20.70;7.47;;;;;;;;;;5066691;28;20032;-61
2023/12/28 04:38:47;;;;;;;21.23;7.55;;;;;;;;;;5066212;28;20225;-60
2023/12/28 04:41:13;;;;;;;18.45;7.70;;;;;;;;;;5064815;28;20183;-56
2023/12/28 04:43:40;;;;;;;18.73;7.35;;;;;;;;;;5066189;28;20075;-61
2023/12/28 04:46:07;;;;;;;21.73;8.10;;;;;;;;;;5066469;28;20024;-61
2023/12/28 04:48:34;;;;;;;20.88;7.38;;;;;;;;;;5066220;28;20017;-62
2023/12/28 04:51:03;;;;;;;23.55;8.18;;;;;;;;;;5065953;28;20260;-64
2023/12/28 04:53:29;;;;;;;24.95;7.82;;;;;;;;;;5066154;28;20028;-62
2023/12/28 04:55:56;;;;;;;19.95;7.95;;;;;;;;;;5066038;28;20051;-63
2023/12/28 04:58:23;;;;;;;19.15;7.88;;;;;;;;;;5065911;28;20029;-66
2023/12/28 05:00:49;;;;;;;22.02;8.23;;;;;;;;;;5066080;28;20036;-66
2023/12/28 05:03:16;;;;;;;21.50;7.82;;;;;;;;;;5065687;28;20055;-63
2023/12/28 05:05:42;;;;;;;21.95;8.07;;;;;;;;;;5065893;28;20025;-63
2023/12/28 05:08:09;;;;;;;21.77;7.88;;;;;;;;;;5065655;28;20021;-62
2023/12/28 05:10:35;;;;;;;22.92;7.97;;;;;;;;;;5065864;28;20029;-62
2023/12/28 05:13:02;;;;;;;26.02;7.97;;;;;;;;;;5065587;28;20016;-62
2023/12/28 05:15:29;;;;;;;21.65;8.13;;;;;;;;;;5065636;28;20047;-62
2023/12/28 05:17:55;;;;;;;24.10;7.95;;;;;;;;;;5065718;28;20017;-58
2023/12/28 05:20:22;;;;;;;19.58;7.47;;;;;;;;;;5065822;28;20344;-60
2023/12/28 05:22:48;;;;;;;21.27;8.18;;;;;;;;;;5065328;28;20020;-61
2023/12/28 05:25:15;;;;;;;20.50;7.47;;;;;;;;;;5065578;28;20182;-59
2023/12/28 05:27:42;;;;;;;21.48;8.02;;;;;;;;;;5065410;28;20021;-58
2023/12/28 05:30:10;;;;;;;23.90;7.68;;;;;;;;;;5065596;28;20253;-62
2023/12/28 05:32:37;;;;;;;20.70;7.32;;;;;;;;;;5065275;28;20028;-62
2023/12/28 05:35:03;;;;;;;24.90;7.18;;;;;;;;;;5065296;28;20025;-64
2023/12/28 05:37:30;;;;;;;19.23;7.28;;;;;;;;;;5065582;28;20070;-62
2023/12/28 05:39:57;;;;;;;21.52;7.85;;;;;;;;;;5065705;28;20268;-62
2023/12/28 05:42:24;;;;;;;22.33;7.10;;;;;;;;;;5064670;28;20025;-61
2023/12/28 05:44:50;;;;;;;21.63;7.43;;;;;;;;;;5065307;28;20040;-57
2023/12/28 05:47:17;;;;;;;20.27;7.72;;;;;;;;;;5064761;28;20088;-60
2023/12/28 05:49:43;;;;;;;23.10;7.88;;;;;;;;;;5064740;28;20029;-60
2023/12/28 05:52:10;;;;;;;20.92;7.60;;;;;;;;;;5065176;28;20024;-61
2023/12/28 05:54:37;;;;;;;19.42;6.70;;;;;;;;;;5064794;28;20256;-60
2023/12/28 05:57:04;;;;;;;20.73;7.53;;;;;;;;;;5064839;28;20029;-62
2023/12/28 05:59:30;;;;;;;20.70;7.13;;;;;;;;;;5064608;28;20115;-64
2023/12/28 06:01:57;;;;;;;20.02;6.93;;;;;;;;;;5064589;28;20025;-63
2023/12/28 06:04:23;;;;;;;19.38;7.13;;;;;;;;;;5065056;28;20027;-60
2023/12/28 06:06:50;;;;;;;17.25;6.93;;;;;;;;;;5065164;28;20021;-61
2023/12/28 06:09:17;;;;;;;17.98;6.60;;;;;;;;;;5064610;28;20012;-62
2023/12/28 06:11:43;;;;;;;19.17;7.10;;;;;;;;;;5064614;28;20025;-60
2023/12/28 06:14:10;;;;;;;16.75;7.05;;;;;;;;;;5064588;28;20047;-58
2023/12/28 06:16:36;;;;;;;18.25;7.07;;;;;;;;;;5064616;28;20027;-58
2023/12/28 06:19:03;;;;;;;18.80;6.85;;;;;;;;;;5064302;28;20080;-59
2023/12/28 06:21:30;;;;;;;15.85;6.40;;;;;;;;;;5064683;28;20041;-61
2023/12/28 06:23:57;;;;;;;18.60;6.80;;;;;;;;;;5064512;28;20024;-63
2023/12/28 06:26:23;;;;;;;17.77;6.50;;;;;;;;;;5064648;28;20021;-59
2023/12/28 06:28:50;;;;;;;17.92;6.15;;;;;;;;;;5064295;28;20027;-61
2023/12/28 06:31:16;;;;;;;18.85;7.07;;;;;;;;;;5064806;28;20036;-61
2023/12/28 06:33:44;;;;;;;20.67;6.65;;;;;;;;;;5064159;28;20047;-59
2023/12/28 06:36:10;;;;;;;18.02;6.50;;;;;;;;;;5064260;28;20033;-61
2023/12/28 06:38:37;;;;;;;17.40;6.00;;;;;;;;;;5064012;28;20021;-57
2023/12/28 06:41:10;;;;;;;21.52;6.50;;;;;;;;;;5064151;28;20036;-61
2023/12/28 06:43:37;;;;;;;19.45;6.40;;;;;;;;;;5064283;28;20411;-57
2023/12/28 06:46:03;;;;;;;19.75;7.32;;;;;;;;;;5064227;28;20190;-61
2023/12/28 06:48:30;;;;;;;17.48;5.78;;;;;;;;;;5063481;28;20025;-58
2023/12/28 06:50:56;;;;;;;20.38;7.28;;;;;;;;;;5063957;28;20112;-62
2023/12/28 06:53:23;;;;;;;17.45;6.95;;;;;;;;;;5063863;28;20027;-62
2023/12/28 06:55:49;;;;;;;21.10;7.05;;;;;;;;;;5064260;28;20029;-55
2023/12/28 06:58:16;;;;;;;19.10;6.95;;;;;;;;;;5063680;28;20044;-56
2023/12/28 07:00:43;;;;;;;21.67;6.75;;;;;;;;;;5064066;28;20040;-60
2023/12/28 07:03:10;;;;;;;20.30;7.07;;;;;;;;;;5064026;28;20021;-60
2023/12/28 07:05:37;;;;;;;15.65;6.32;;;;;;;;;;5064033;28;20139;-61
2023/12/28 07:08:03;;;;;;;22.30;7.15;;;;;;;;;;5063766;28;20079;-58
2023/12/28 07:10:30;;;;;;;19.25;6.13;;;;;;;;;;5063903;28;20027;-60
2023/12/28 07:12:56;;;;;;;16.80;6.65;;;;;;;;;;5063610;28;20088;-59
2023/12/28 07:15:23;;;;;;;17.80;6.50;;;;;;;;;;5070621;28;20028;-62
2023/12/28 07:17:50;;;;;;;17.08;6.10;;;;;;;;;;5068685;28;20013;-62
2023/12/28 07:20:16;;;;;;;17.00;6.47;;;;;;;;;;5084209;28;20030;-62
2023/12/28 07:22:43;;;;;;;20.85;6.57;;;;;;;;;;5083540;28;20021;-59
2023/12/28 07:25:10;;;;;;;16.30;6.72;;;;;;;;;;5083932;28;20028;-62
2023/12/28 07:27:36;;;;;;;16.58;6.50;;;;;;;;;;5083457;28;20084;-57
2023/12/28 07:30:03;;;;;;;18.88;6.45;;;;;;;;;;5083979;28;20078;-61
2023/12/28 07:32:30;;;;;;;21.88;7.40;;;;;;;;;;5083702;28;20027;-59
2023/12/28 07:34:58;;;;;;;20.83;6.30;;;;;;;;;;5083738;28;20043;-63
2023/12/28 07:37:25;;;;;;;16.52;6.45;;;;;;;;;;5083514;28;20020;-64
2023/12/28 07:39:52;;;;;;;15.75;6.00;;;;;;;;;;5075617;28;20033;-62
2023/12/28 07:42:18;;;;;;;15.48;5.97;;;;;;;;;;5073339;28;20024;-64
2023/12/28 07:44:45;;;;;;;16.48;6.20;;;;;;;;;;5063385;28;20029;-61
2023/12/28 07:47:12;;;;;;;14.18;6.28;;;;;;;;;;5063265;28;20331;-59
2023/12/28 07:49:39;;;;;;;20.42;6.70;;;;;;;;;;5063229;28;20411;-62
2023/12/28 07:52:07;;;;;;;15.27;6.10;;;;;;;;;;5063190;28;20106;-63
2023/12/28 07:54:33;;;;;;;16.20;6.30;;;;;;;;;;5063275;28;20092;-62
2023/12/28 07:57:00;;;;;;;15.25;6.68;;;;;;;;;;5063450;28;20025;-62
2023/12/28 07:59:27;;;;;;;14.38;6.13;;;;;;;;;;5063379;28;20021;-61
2023/12/28 08:01:53;;;;;;;17.80;5.80;;;;;;;;;;5065711;28;20092;-61
2023/12/28 08:04:20;;;;;;;19.02;6.50;;;;;;;;;;5066643;28;20017;-62
2023/12/28 08:06:46;;;;;;;14.98;6.00;;;;;;;;;;5066986;28;20035;-61
2023/12/28 08:09:13;;;;;;;22.23;6.40;;;;;;;;;;5066847;28;20022;-61
2023/12/28 08:11:39;;;;;;;17.23;6.53;;;;;;;;;;5063641;28;20028;-61
2023/12/28 08:14:06;;;;;;;15.93;5.80;;;;;;;;;;5057076;28;20029;-60
2023/12/28 08:16:34;;;;;;;18.90;5.68;;;;;;;;;;5067151;28;20075;-61
2023/12/28 08:19:02;;;;;;;14.32;5.88;;;;;;;;;;5066589;28;20059;-61
2023/12/28 08:21:28;;;;;;;21.88;6.38;;;;;;;;;;5067058;28;20508;-62
2023/12/28 08:23:55;;;;;;;14.98;6.15;;;;;;;;;;5066401;28;20024;-62
2023/12/28 08:26:21;;;;;;;12.93;5.35;;;;;;;;;;5066944;28;20092;-61
2023/12/28 08:28:48;;;;;;;17.70;6.00;;;;;;;;;;5066159;28;20024;-61
2023/12/28 08:31:14;;;;;;;16.05;6.22;;;;;;;;;;5066542;28;20029;-61
2023/12/28 08:33:41;;;;;;;14.50;6.03;;;;;;;;;;5066447;28;20025;-62
2023/12/28 08:36:09;;;;;;;19.73;6.22;;;;;;;;;;5066483;28;20029;-64
2023/12/28 08:38:35;;;;;;;13.65;5.85;;;;;;;;;;5066116;28;20024;-62
2023/12/28 08:41:03;;;;;;;18.25;5.85;;;;;;;;;;5066437;28;20052;-61
2023/12/28 08:43:30;;;;;;;14.27;5.55;;;;;;;;;;5065950;28;20062;-61
2023/12/28 08:45:56;;;;;;;17.27;5.65;;;;;;;;;;5066533;28;20049;-62
2023/12/28 08:48:23;;;;;;;16.98;6.63;;;;;;;;;;5066190;28;20024;-61
2023/12/28 08:50:50;;;;;;;16.08;5.72;;;;;;;;;;5065831;28;20053;-63
2023/12/28 08:53:16;;;;;;;16.73;5.82;;;;;;;;;;5066056;28;20244;-61
2023/12/28 08:55:43;;;;;;;17.60;6.38;;;;;;;;;;5066310;28;20313;-63
2023/12/28 08:58:09;;;;;;;19.88;6.57;;;;;;;;;;5065861;28;20024;-59
2023/12/28 09:00:36;;;;;;;16.48;6.22;;;;;;;;;;5066050;28;20090;-58
2023/12/28 09:03:03;;;;;;;18.42;6.43;;;;;;;;;;5065757;28;20334;-57
2023/12/28 09:05:29;;;;;;;16.65;6.25;;;;;;;;;;5066274;28;20305;-58
2023/12/28 09:07:56;;;;;;;16.67;5.88;;;;;;;;;;5066380;28;20043;-60
2023/12/28 09:10:23;;;;;;;16.73;6.18;;;;;;;;;;5066335;28;20353;-58
2023/12/28 09:12:50;;;;;;;17.00;6.75;;;;;;;;;;5065478;28;20025;-58
2023/12/28 09:15:17;;;;;;;17.10;6.95;;;;;;;;;;5065995;28;20036;-57
2023/12/28 09:17:43;;;;;;;18.48;7.45;;;;;;;;;;5065668;28;20020;-58
2023/12/28 09:20:11;;;;;;;18.58;7.68;;;;;;;;;;5065465;28;20186;-57
2023/12/28 09:22:38;;;;;;;16.88;7.75;;;;;;;;;;5065553;28;20025;-58
2023/12/28 09:25:05;;;;;;;16.38;7.35;;;;;;;;;;5065504;28;20066;-57
2023/12/28 09:27:31;;;;;;;15.38;7.65;;;;;;;;;;5065509;28;20024;-58
2023/12/28 09:29:58;;;;;;;20.60;7.55;;;;;;;;;;5065944;28;20048;-63
2023/12/28 09:32:24;;;;;;;18.00;7.63;;;;;;;;;;5065215;28;20044;-62
2023/12/28 09:34:51;;;;;;;17.92;7.25;;;;;;;;;;5065488;28;20040;-63
2023/12/28 09:37:18;;;;;;;19.83;7.07;;;;;;;;;;5065502;28;20276;-63
2023/12/28 09:39:44;;;;;;;17.45;6.88;;;;;;;;;;5065163;28;20056;-57
2023/12/28 09:42:17;;;;;;;19.88;7.65;;;;;;;;;;5065133;28;20021;-61
2023/12/28 09:44:44;;;;;;;17.10;6.88;;;;;;;;;;5065353;28;20029;-56
2023/12/28 09:47:12;;;;;;;17.55;6.88;;;;;;;;;;5064876;28;20017;-57
2023/12/28 09:49:40;;;;;;;19.42;7.35;;;;;;;;;;5068153;28;20025;-56
2023/12/28 09:52:07;;;;;;;21.00;7.53;;;;;;;;;;5066520;28;20040;-62
2023/12/28 09:54:35;;;;;;;17.42;7.13;;;;;;;;;;5084782;28;20024;-63
2023/12/28 09:57:02;;;;;;;18.50;6.25;;;;;;;;;;5084584;28;20084;-57
2023/12/28 09:59:29;;;;;;;18.23;7.10;;;;;;;;;;5084808;28;20024;-61
2023/12/28 10:01:56;;;;;;;20.67;6.90;;;;;;;;;;5084998;28;20020;-61
2023/12/28 10:04:23;;;;;;;20.52;7.35;;;;;;;;;;5084354;28;20013;-58
2023/12/28 10:06:50;;;;;;;17.70;6.57;;;;;;;;;;5084687;28;20039;-58
2023/12/28 10:09:17;;;;;;;17.23;6.85;;;;;;;;;;5084472;28;20123;-64
2023/12/28 10:11:44;;;;;;;15.68;6.30;;;;;;;;;;5084694;28;20016;-64
2023/12/28 10:14:10;;;;;;;18.38;6.85;;;;;;;;;;5084402;28;20016;-63
2023/12/28 10:16:40;;;;;;;17.02;6.55;;;;;;;;;;5085028;28;20020;-62
2023/12/28 10:19:07;;;;;;;17.63;6.78;;;;;;;;;;5084302;28;20020;-63
2023/12/28 10:21:34;;;;;;;21.98;6.55;;;;;;;;;;5084805;28;20265;-63
2023/12/28 10:24:01;;;;;;;17.55;6.45;;;;;;;;;;5083946;28;20024;-64
2023/12/28 10:26:28;;;;;;;19.27;6.95;;;;;;;;;;5084894;28;20032;-64
2023/12/28 10:29:02;;;;;;;15.85;6.43;;;;;;;;;;5085195;28;20009;-58
2023/12/28 10:31:30;;;;;;;19.95;7.30;;;;;;;;;;5084865;28;20036;-58
2023/12/28 10:34:02;;;;;;;23.40;13.60;;;;;;;;;;5084416;28;20028;-66
2023/12/28 10:36:28;;;;;;;21.65;13.88;;;;;;;;;;5084793;28;20082;-58
2023/12/28 10:38:55;;;;;;;20.88;10.63;;;;;;;;;;5084251;28;20320;-58
2023/12/28 10:41:22;;;;;;;19.40;8.80;;;;;;;;;;5084162;28;20032;-58
2023/12/28 10:44:05;;;;;;;18.90;8.43;;;;;;;;;;5084181;28;20020;-62
2023/12/28 10:46:31;;;;;;;;;;;;;;;;;;5084854;28;20305;-58
2023/12/28 10:49:06;;;;;;;21.95;7.93;;;;;;;;;;5084491;28;19946;-59
2023/12/28 10:51:36;;;;;;;19.02;8.23;;;;;;;;;;5084198;28;20072;-60
2023/12/28 10:54:24;;;;;;;18.92;7.60;;;;;;;;;;5084180;28;20048;-60
2023/12/28 10:56:53;;;;;;;24.48;7.88;;;;;;;;;;5084115;28;20092;-61
2023/12/28 10:59:27;;;;;;;14.52;7.03;;;;;;;;;;5083833;28;20020;-62
2023/12/28 11:01:56;;;;;;;17.98;7.20;;;;;;;;;;5083990;28;20025;-61
2023/12/28 11:04:48;;;;;;;19.50;7.00;;;;;;;;;;5083734;28;20028;-59
2023/12/28 11:07:16;;;;;;;19.38;6.82;;;;;;;;;;5080612;28;20040;-60
2023/12/28 11:09:43;;;;;;;19.63;6.75;;;;;;;;;;5083803;28;20023;-60
2023/12/28 11:12:13;;;;;;;20.25;7.57;;;;;;;;;;5084000;28;20032;-62
2023/12/28 11:14:43;;;;;;;18.23;6.85;;;;;;;;;;5084467;28;20024;-62
2023/12/28 11:17:14;;;;;;;17.50;6.43;;;;;;;;;;5083999;28;20028;-62
2023/12/28 11:19:42;;;;;;;18.02;6.72;;;;;;;;;;5084036;28;20031;-56
2023/12/28 11:22:09;;;;;;;21.13;7.35;;;;;;;;;;5083784;28;20263;-60
2023/12/28 11:24:36;;;;;;;18.48;6.97;;;;;;;;;;5083878;28;20021;-60
2023/12/28 11:27:04;;;;;;;18.58;7.03;;;;;;;;;;5084120;28;20028;-60
2023/12/28 11:29:31;;;;;;;19.60;7.47;;;;;;;;;;5083603;28;20319;-60
2023/12/28 11:31:59;;;;;;;17.35;7.47;;;;;;;;;;5083463;28;20497;-60
2023/12/28 11:34:26;;;;;;;18.15;6.35;;;;;;;;;;5083951;28;20339;-60
2023/12/28 11:36:55;;;;;;;24.75;7.28;;;;;;;;;;5087609;28;20028;-60
2023/12/28 11:39:44;;;;;;;16.17;6.78;;;;;;;;;;5087794;28;20024;-60
2023/12/28 11:42:12;;;;;;;19.92;6.70;;;;;;;;;;5086930;28;20024;-60
2023/12/28 11:44:46;;;;;;;18.90;6.85;;;;;;;;;;5087659;28;20036;-59
2023/12/28 11:47:14;;;;;;;53.75;9.93;;;;;;;;;;5087289;28;20028;-60
2023/12/28 11:49:40;;;;;;;54.15;10.10;;;;;;;;;;5087429;28;20066;-60
2023/12/28 11:52:08;;;;;;;43.60;9.43;;;;;;;;;;5087586;28;20056;-60
2023/12/28 11:54:34;;;;;;;53.15;9.45;;;;;;;;;;5087200;28;20239;-60
2023/12/28 11:57:01;;;;;;;136.25;17.05;;;;;;;;;;5087424;28;20208;-60
2023/12/28 11:59:27;;;;;;;89.43;14.48;;;;;;;;;;5087900;28;20028;-60
2023/12/28 12:01:54;;;;;;;94.40;13.43;;;;;;;;;;5086861;28;20039;-59
2023/12/28 12:04:22;;;;;;;90.30;13.55;;;;;;;;;;5087143;28;20017;-59
2023/12/28 12:06:50;;;;;;;146.32;18.35;;;;;;;;;;5086956;28;20028;-59
2023/12/28 12:09:22;;;;;;;168.00;21.52;;;;;;;;;;5086616;28;20027;-59
2023/12/28 12:11:49;;;;;;;129.68;18.70;;;;;;;;;;5087296;28;20305;-59
2023/12/28 12:14:15;;;;;;;127.82;18.42;;;;;;;;;;5086865;28;20044;-58
2023/12/28 12:16:42;;;;;;;152.88;20.70;;;;;;;;;;5087049;28;20055;-58
2023/12/28 12:19:09;;;;;;;110.78;21.90;;;;;;;;;;5086962;28;20036;-60
2023/12/28 12:21:35;;;;;;;100.75;18.55;;;;;;;;;;5086632;28;20051;-60
2023/12/28 12:24:02;;;;;;;145.65;22.90;;;;;;;;;;5086829;28;20061;-59
2023/12/28 12:26:36;;;;;;;152.30;21.25;;;;;;;;;;5087536;28;20016;-58
2023/12/28 12:29:03;;;;;;;108.15;17.65;;;;;;;;;;5086570;28;20024;-60
2023/12/28 12:31:29;;;;;;;90.03;16.45;;;;;;;;;;5087249;28;20020;-59
2023/12/28 12:33:56;;;;;;;110.93;17.25;;;;;;;;;;5086264;28;20032;-60
2023/12/28 12:36:23;;;;;;;112.35;16.38;;;;;;;;;;5086981;28;20193;-60
2023/12/28 12:38:49;;;;;;;94.18;16.80;;;;;;;;;;5086330;28;20052;-60
2023/12/28 12:41:16;;;;;;;94.35;16.52;;;;;;;;;;5086685;28;20047;-60
2023/12/28 12:43:42;;;;;;;88.45;15.05;;;;;;;;;;5086212;28;20382;-59
2023/12/28 12:46:09;;;;;;;103.75;16.73;;;;;;;;;;5085949;28;20028;-60
2023/12/28 12:48:36;;;;;;;91.35;15.35;;;;;;;;;;5086485;28;20029;-60
2023/12/28 12:51:04;;;;;;;53.95;12.88;;;;;;;;;;5084501;28;20055;-58
2023/12/28 12:53:34;;;;;;;64.85;12.75;;;;;;;;;;5057500;28;20044;-59
2023/12/28 12:56:01;;;;;;;68.30;12.18;;;;;;;;;;5066514;28;20088;-61
2023/12/28 12:58:30;;;;;;;46.13;11.13;;;;;;;;;;5066624;28;20020;-58
2023/12/28 13:00:57;;;;;;;49.90;11.30;;;;;;;;;;5066160;28;20054;-59
2023/12/28 13:03:29;;;;;;;49.85;11.15;;;;;;;;;;5066508;28;20029;-62
2023/12/28 13:05:56;;;;;;;50.53;10.73;;;;;;;;;;5066285;28;20017;-59
2023/12/28 13:08:23;;;;;;;50.17;10.68;;;;;;;;;;5066210;28;20029;-59
2023/12/28 13:10:49;;;;;;;50.92;11.18;;;;;;;;;;5066110;28;20041;-59
2023/12/28 13:13:16;;;;;;;50.60;11.00;;;;;;;;;;5066234;28;20032;-59
2023/12/28 13:15:43;;;;;;;51.40;10.65;;;;;;;;;;5065948;28;20040;-59
2023/12/28 13:18:10;;;;;;;51.33;11.32;;;;;;;;;;5065438;28;20032;-59
2023/12/28 13:20:36;;;;;;;60.65;12.80;;;;;;;;;;5068878;28;20023;-59
2023/12/28 13:23:03;;;;;;;60.67;12.13;;;;;;;;;;5064971;28;20033;-60
2023/12/28 13:25:29;;;;;;;54.47;12.70;;;;;;;;;;5065317;28;20243;-59
2023/12/28 13:27:56;;;;;;;50.20;11.68;;;;;;;;;;5068923;28;20212;-60
2023/12/28 13:30:26;;;;;;;49.67;10.38;;;;;;;;;;5065284;28;20017;-60
2023/12/28 13:32:52;;;;;;;41.03;10.52;;;;;;;;;;5065013;28;20078;-61
2023/12/28 13:35:19;;;;;;;35.72;9.38;;;;;;;;;;5065401;28;20032;-61
2023/12/28 13:37:46;;;;;;;31.23;9.27;;;;;;;;;;5065140;28;20092;-60
2023/12/28 13:40:12;;;;;;;27.13;9.30;;;;;;;;;;5065090;28;20021;-60
2023/12/28 13:42:39;;;;;;;28.67;9.45;;;;;;;;;;5065032;28;20045;-59
2023/12/28 13:45:06;;;;;;;26.05;9.20;;;;;;;;;;5065237;28;20021;-59
2023/12/28 13:47:32;;;;;;;23.98;8.48;;;;;;;;;;5064361;28;20289;-61
2023/12/28 13:49:59;;;;;;;22.05;8.30;;;;;;;;;;5064847;28;20048;-63
2023/12/28 13:52:25;;;;;;;27.75;7.88;;;;;;;;;;5061844;28;20036;-60
2023/12/28 13:54:52;;;;;;;20.70;7.70;;;;;;;;;;5064717;28;20025;-60
2023/12/28 13:57:19;;;;;;;22.13;8.88;;;;;;;;;;5064779;28;20028;-61
2023/12/28 13:59:45;;;;;;;23.77;7.80;;;;;;;;;;5066154;28;20296;-59
2023/12/28 14:02:12;;;;;;;25.35;8.05;;;;;;;;;;5077831;28;20090;-59
2023/12/28 14:04:38;;;;;;;20.38;7.50;;;;;;;;;;5075987;28;20024;-62
2023/12/28 14:07:05;;;;;;;21.52;7.82;;;;;;;;;;5081435;28;20243;-63
2023/12/28 14:09:32;;;;;;;27.30;7.57;;;;;;;;;;5073147;28;20170;-60
2023/12/28 14:11:59;;;;;;;21.90;7.85;;;;;;;;;;5069771;28;20040;-61
2023/12/28 14:14:26;;;;;;;18.35;7.65;;;;;;;;;;5078518;28;20070;-62
2023/12/28 14:16:52;;;;;;;21.05;7.63;;;;;;;;;;5070488;28;20055;-60
2023/12/28 14:19:19;;;;;;;20.02;7.53;;;;;;;;;;5053055;28;20024;-61
2023/12/28 14:21:46;;;;;;;19.55;7.55;;;;;;;;;;5063274;28;20078;-60
2023/12/28 14:24:13;;;;;;;24.98;7.50;;;;;;;;;;5064064;28;20090;-61
2023/12/28 14:26:44;;;;;;;24.13;7.70;;;;;;;;;;5064060;28;20017;-61
2023/12/28 14:29:11;;;;;;;20.55;7.18;;;;;;;;;;5064210;28;20119;-61